TAM3709 SBPS-SBBR
Flight info
| Callsign | TAM3709 |
|---|---|
| Flight time | 1h 24m |
| Altitude | 34000 |
| Route | MUKOS DCT EVPIV DCT DALMU |
| Aircraft | A320/M-SDE3FGHIRWY/LB1 |
Departure
| Time | 2026-04-22 18:44 |
|---|---|
| Airport | Porto Seguro International Airport (SBPS) |
Arrival
| Time | 2026-04-22 20:08 |
|---|---|
| Airport | Presidente Juscelino Kubitschek International Airport (SBBR) |
| Time | Latitude | Longitude | Altitude | Speed | Heading |
|---|---|---|---|---|---|
| 2026-04-22 18:22 | -16.44059 | -39.08095 | 160 ft | 0 kts | 165° |
| 2026-04-22 18:33 | -16.44054 | -39.08097 | 160 ft | 4 kts | 167° |
| 2026-04-22 18:33 | -16.44028 | -39.08099 | 160 ft | 4 kts | 200° |
| 2026-04-22 18:33 | -16.44010 | -39.08084 | 160 ft | 3 kts | 251° |
| 2026-04-22 18:33 | -16.44007 | -39.08075 | 160 ft | 0 kts | 254° |
| 2026-04-22 18:38 | -16.44012 | -39.08100 | 160 ft | 6 kts | 272° |
| 2026-04-22 18:39 | -16.43945 | -39.08128 | 160 ft | 9 kts | 343° |
| 2026-04-22 18:39 | -16.43881 | -39.08155 | 160 ft | 10 kts | 319° |
| 2026-04-22 18:39 | -16.43884 | -39.08212 | 159 ft | 8 kts | 242° |
| 2026-04-22 18:39 | -16.43900 | -39.08271 | 159 ft | 9 kts | 255° |
| 2026-04-22 18:40 | -16.43917 | -39.08331 | 158 ft | 8 kts | 253° |
| 2026-04-22 18:40 | -16.43932 | -39.08388 | 158 ft | 8 kts | 253° |
| 2026-04-22 18:40 | -16.43946 | -39.08436 | 158 ft | 6 kts | 253° |
| 2026-04-22 18:40 | -16.43963 | -39.08497 | 159 ft | 13 kts | 253° |
| 2026-04-22 18:41 | -16.43988 | -39.08590 | 159 ft | 13 kts | 255° |
| 2026-04-22 18:41 | -16.44009 | -39.08674 | 159 ft | 11 kts | 255° |
| 2026-04-22 18:41 | -16.44035 | -39.08775 | 159 ft | 18 kts | 255° |
| 2026-04-22 18:41 | -16.44067 | -39.08899 | 161 ft | 18 kts | 255° |
| 2026-04-22 18:42 | -16.44076 | -39.08991 | 160 ft | 7 kts | 184° |
| 2026-04-22 18:42 | -16.44085 | -39.08952 | 160 ft | 3 kts | 75° |
| 2026-04-22 18:42 | -16.44084 | -39.08951 | 160 ft | 0 kts | 75° |
| 2026-04-22 18:43 | -16.44012 | -39.08677 | 159 ft | 80 kts | 73° |
| 2026-04-22 18:43 | -16.43799 | -39.07888 | 163 ft | 143 kts | 75° |
| 2026-04-22 18:43 | -16.43523 | -39.06833 | 663 ft | 151 kts | 77° |
| 2026-04-22 18:44 | -16.43232 | -39.05763 | 1338 ft | 155 kts | 78° |
| 2026-04-22 18:44 | -16.42931 | -39.04636 | 1823 ft | 170 kts | 78° |
| 2026-04-22 18:44 | -16.42551 | -39.03381 | 2178 ft | 196 kts | 67° |
| 2026-04-22 18:44 | -16.41481 | -39.02370 | 2492 ft | 229 kts | 21° |
| 2026-04-22 18:45 | -16.39819 | -39.02316 | 2890 ft | 256 kts | 343° |
| 2026-04-22 18:45 | -16.38146 | -39.03148 | 3386 ft | 277 kts | 326° |
| 2026-04-22 18:45 | -16.36561 | -39.04328 | 4258 ft | 282 kts | 321° |
| 2026-04-22 18:45 | -16.34998 | -39.05598 | 5170 ft | 286 kts | 321° |
| 2026-04-22 18:46 | -16.33407 | -39.06868 | 6083 ft | 290 kts | 322° |
| 2026-04-22 18:46 | -16.31902 | -39.08246 | 6922 ft | 293 kts | 309° |
| 2026-04-22 18:46 | -16.30781 | -39.10015 | 7861 ft | 293 kts | 294° |
| 2026-04-22 18:46 | -16.30141 | -39.12048 | 8795 ft | 294 kts | 279° |
| 2026-04-22 18:47 | -16.30021 | -39.14173 | 9711 ft | 295 kts | 270° |
| 2026-04-22 18:47 | -16.30009 | -39.16336 | 10388 ft | 306 kts | 271° |
| 2026-04-22 18:47 | -16.29995 | -39.18629 | 10691 ft | 327 kts | 271° |
| 2026-04-22 18:47 | -16.29980 | -39.21036 | 11329 ft | 335 kts | 271° |
| 2026-04-22 18:48 | -16.29966 | -39.23470 | 12082 ft | 339 kts | 271° |
| 2026-04-22 18:48 | -16.29953 | -39.25899 | 12873 ft | 341 kts | 272° |
| 2026-04-22 18:48 | -16.29939 | -39.28378 | 13647 ft | 344 kts | 272° |
| 2026-04-22 18:48 | -16.29923 | -39.30883 | 14336 ft | 347 kts | 272° |
| 2026-04-22 18:49 | -16.29907 | -39.33407 | 14953 ft | 351 kts | 272° |
| 2026-04-22 18:49 | -16.29891 | -39.35966 | 15569 ft | 355 kts | 271° |
| 2026-04-22 18:49 | -16.29875 | -39.38553 | 16147 ft | 360 kts | 271° |
| 2026-04-22 18:49 | -16.29858 | -39.41180 | 16732 ft | 364 kts | 271° |
| 2026-04-22 18:50 | -16.29843 | -39.43831 | 17297 ft | 369 kts | 271° |
| 2026-04-22 18:50 | -16.29827 | -39.46488 | 17866 ft | 373 kts | 271° |
| 2026-04-22 18:50 | -16.29807 | -39.49204 | 18382 ft | 379 kts | 270° |
| 2026-04-22 18:50 | -16.29791 | -39.51969 | 18852 ft | 383 kts | 270° |
| 2026-04-22 18:51 | -16.29772 | -39.54758 | 19328 ft | 387 kts | 271° |
| 2026-04-22 18:51 | -16.29749 | -39.57576 | 19817 ft | 391 kts | 271° |
| 2026-04-22 18:51 | -16.29723 | -39.60428 | 20301 ft | 395 kts | 271° |
| 2026-04-22 18:51 | -16.29699 | -39.63304 | 20794 ft | 399 kts | 271° |
| 2026-04-22 18:52 | -16.29680 | -39.66207 | 21281 ft | 403 kts | 271° |
| 2026-04-22 18:52 | -16.29660 | -39.69143 | 21801 ft | 406 kts | 271° |
| 2026-04-22 18:52 | -16.29635 | -39.72097 | 22279 ft | 410 kts | 271° |
| 2026-04-22 18:52 | -16.29607 | -39.75078 | 22782 ft | 414 kts | 271° |
| 2026-04-22 18:53 | -16.29597 | -39.78047 | 23263 ft | 417 kts | 270° |
| 2026-04-22 18:53 | -16.29632 | -39.81072 | 23730 ft | 421 kts | 269° |
| 2026-04-22 18:53 | -16.29701 | -39.84126 | 24193 ft | 422 kts | 269° |
| 2026-04-22 18:53 | -16.29779 | -39.87188 | 24648 ft | 423 kts | 269° |
| 2026-04-22 18:54 | -16.29848 | -39.90249 | 25110 ft | 423 kts | 268° |
| 2026-04-22 18:54 | -16.29907 | -39.93316 | 25553 ft | 424 kts | 268° |
| 2026-04-22 18:54 | -16.29960 | -39.96397 | 26001 ft | 425 kts | 268° |
| 2026-04-22 18:54 | -16.30009 | -39.99480 | 26435 ft | 426 kts | 268° |
| 2026-04-22 18:55 | -16.30056 | -40.02571 | 26851 ft | 428 kts | 268° |
| 2026-04-22 18:55 | -16.30101 | -40.05672 | 27267 ft | 429 kts | 267° |
| 2026-04-22 18:55 | -16.30146 | -40.08784 | 27666 ft | 431 kts | 267° |
| 2026-04-22 18:55 | -16.30194 | -40.11917 | 28061 ft | 433 kts | 267° |
| 2026-04-22 18:56 | -16.30242 | -40.15014 | 28456 ft | 434 kts | 267° |
| 2026-04-22 18:56 | -16.30292 | -40.18164 | 28861 ft | 436 kts | 267° |
| 2026-04-22 18:56 | -16.30339 | -40.21325 | 29253 ft | 438 kts | 266° |
| 2026-04-22 18:56 | -16.30382 | -40.24498 | 29634 ft | 439 kts | 266° |
| 2026-04-22 18:57 | -16.30425 | -40.27690 | 30001 ft | 441 kts | 266° |
| 2026-04-22 18:57 | -16.30469 | -40.30887 | 30310 ft | 443 kts | 266° |
| 2026-04-22 18:57 | -16.30517 | -40.34099 | 30580 ft | 445 kts | 266° |
| 2026-04-22 18:57 | -16.30564 | -40.37332 | 30828 ft | 448 kts | 266° |
| 2026-04-22 18:58 | -16.30612 | -40.40586 | 31071 ft | 451 kts | 265° |
| 2026-04-22 18:58 | -16.30656 | -40.43869 | 31318 ft | 454 kts | 265° |
| 2026-04-22 18:58 | -16.30703 | -40.47171 | 31573 ft | 456 kts | 265° |
| 2026-04-22 18:58 | -16.30749 | -40.50437 | 31911 ft | 456 kts | 265° |
| 2026-04-22 18:59 | -16.30790 | -40.53734 | 32239 ft | 457 kts | 265° |
| 2026-04-22 18:59 | -16.30830 | -40.57051 | 32558 ft | 458 kts | 265° |
| 2026-04-22 18:59 | -16.30869 | -40.60374 | 32881 ft | 458 kts | 264° |
| 2026-04-22 18:59 | -16.30909 | -40.63686 | 33206 ft | 459 kts | 264° |
| 2026-04-22 19:00 | -16.30948 | -40.67017 | 33542 ft | 459 kts | 264° |
| 2026-04-22 19:00 | -16.30991 | -40.70344 | 33860 ft | 460 kts | 264° |
| 2026-04-22 19:00 | -16.31032 | -40.73682 | 34006 ft | 460 kts | 264° |
| 2026-04-22 19:00 | -16.31067 | -40.76981 | 34035 ft | 452 kts | 264° |
| 2026-04-22 19:01 | -16.31142 | -40.83441 | 34035 ft | 447 kts | 264° |
| 2026-04-22 19:01 | -16.31218 | -40.89894 | 34035 ft | 445 kts | 264° |
| 2026-04-22 19:02 | -16.31304 | -40.96334 | 34035 ft | 445 kts | 264° |
| 2026-04-22 19:02 | -16.31376 | -41.02779 | 34035 ft | 445 kts | 264° |
| 2026-04-22 19:03 | -16.31438 | -41.09221 | 34029 ft | 445 kts | 264° |
| 2026-04-22 19:03 | -16.31487 | -41.14570 | 34026 ft | 445 kts | 264° |
| 2026-04-22 19:04 | -16.31552 | -41.21018 | 34025 ft | 445 kts | 264° |
| 2026-04-22 19:04 | -16.31635 | -41.28510 | 34021 ft | 445 kts | 264° |
| 2026-04-22 19:05 | -16.31689 | -41.33908 | 34018 ft | 445 kts | 264° |
| 2026-04-22 19:05 | -16.31745 | -41.40352 | 34013 ft | 445 kts | 264° |
| 2026-04-22 19:06 | -16.31803 | -41.46765 | 34015 ft | 445 kts | 264° |
| 2026-04-22 19:07 | -16.31887 | -41.56440 | 34014 ft | 445 kts | 264° |
| 2026-04-22 19:07 | -16.31935 | -41.62894 | 34011 ft | 446 kts | 264° |
| 2026-04-22 19:08 | -16.31984 | -41.69353 | 34003 ft | 446 kts | 264° |
| 2026-04-22 19:08 | -16.32035 | -41.75819 | 34003 ft | 446 kts | 264° |
| 2026-04-22 19:09 | -16.32087 | -41.82297 | 34004 ft | 447 kts | 264° |
| 2026-04-22 19:09 | -16.32129 | -41.88721 | 34001 ft | 447 kts | 264° |
| 2026-04-22 19:10 | -16.32164 | -41.95193 | 34003 ft | 447 kts | 264° |
| 2026-04-22 19:10 | -16.32207 | -42.01664 | 33997 ft | 447 kts | 264° |
| 2026-04-22 19:11 | -16.32249 | -42.08157 | 34000 ft | 447 kts | 264° |
| 2026-04-22 19:11 | -16.32285 | -42.14636 | 33999 ft | 447 kts | 264° |
| 2026-04-22 19:12 | -16.32324 | -42.21066 | 33996 ft | 447 kts | 264° |
| 2026-04-22 19:12 | -16.32358 | -42.27543 | 33997 ft | 448 kts | 265° |
| 2026-04-22 19:13 | -16.32392 | -42.34025 | 34004 ft | 448 kts | 264° |
| 2026-04-22 19:13 | -16.32418 | -42.40510 | 34001 ft | 448 kts | 265° |
| 2026-04-22 19:14 | -16.32438 | -42.46997 | 34000 ft | 448 kts | 265° |
| 2026-04-22 19:14 | -16.32459 | -42.53486 | 34004 ft | 448 kts | 265° |
| 2026-04-22 19:15 | -16.32485 | -42.58883 | 34003 ft | 448 kts | 265° |
| 2026-04-22 19:15 | -16.32515 | -42.66441 | 34003 ft | 449 kts | 265° |
| 2026-04-22 19:16 | -16.32536 | -42.72937 | 34006 ft | 449 kts | 265° |
| 2026-04-22 19:16 | -16.32553 | -42.79444 | 34009 ft | 449 kts | 265° |
| 2026-04-22 19:17 | -16.32550 | -42.85947 | 34007 ft | 450 kts | 266° |
| 2026-04-22 19:17 | -16.32437 | -42.92462 | 34005 ft | 450 kts | 266° |
| 2026-04-22 19:18 | -16.32290 | -42.98979 | 34008 ft | 450 kts | 266° |
| 2026-04-22 19:18 | -16.32153 | -43.05497 | 34004 ft | 450 kts | 266° |
| 2026-04-22 19:19 | -16.32034 | -43.12009 | 34005 ft | 450 kts | 266° |
| 2026-04-22 19:19 | -16.31915 | -43.18538 | 34006 ft | 451 kts | 266° |
| 2026-04-22 19:20 | -16.31797 | -43.25060 | 34004 ft | 451 kts | 266° |
| 2026-04-22 19:20 | -16.31673 | -43.31548 | 33998 ft | 451 kts | 266° |
| 2026-04-22 19:21 | -16.31550 | -43.38071 | 33992 ft | 451 kts | 267° |
| 2026-04-22 19:21 | -16.31414 | -43.44600 | 33987 ft | 451 kts | 266° |
| 2026-04-22 19:22 | -16.31281 | -43.51134 | 33978 ft | 451 kts | 266° |
| 2026-04-22 19:22 | -16.31134 | -43.57698 | 33993 ft | 456 kts | 267° |
| 2026-04-22 19:23 | -16.30994 | -43.64251 | 33987 ft | 452 kts | 267° |
| 2026-04-22 19:23 | -16.30870 | -43.70804 | 33990 ft | 452 kts | 267° |
| 2026-04-22 19:24 | -16.30734 | -43.77358 | 33991 ft | 452 kts | 267° |
| 2026-04-22 19:24 | -16.30590 | -43.83905 | 33997 ft | 452 kts | 267° |
| 2026-04-22 19:25 | -16.30443 | -43.90454 | 33994 ft | 453 kts | 267° |
| 2026-04-22 19:25 | -16.30291 | -43.96965 | 33988 ft | 452 kts | 267° |
| 2026-04-22 19:26 | -16.30141 | -44.03511 | 33992 ft | 452 kts | 267° |
| 2026-04-22 19:26 | -16.29995 | -44.10070 | 33985 ft | 452 kts | 267° |
| 2026-04-22 19:27 | -16.29851 | -44.16581 | 33983 ft | 453 kts | 267° |
| 2026-04-22 19:27 | -16.29693 | -44.23132 | 33985 ft | 453 kts | 267° |
| 2026-04-22 19:28 | -16.29532 | -44.29687 | 33985 ft | 453 kts | 267° |
| 2026-04-22 19:28 | -16.29373 | -44.36253 | 33981 ft | 453 kts | 267° |
| 2026-04-22 19:29 | -16.29212 | -44.42813 | 33976 ft | 453 kts | 268° |
| 2026-04-22 19:29 | -16.29050 | -44.49340 | 33971 ft | 454 kts | 268° |
| 2026-04-22 19:30 | -16.28913 | -44.54836 | 33966 ft | 454 kts | 268° |
| 2026-04-22 19:30 | -16.28710 | -44.62469 | 33963 ft | 454 kts | 268° |
| 2026-04-22 19:31 | -16.28544 | -44.69051 | 33965 ft | 454 kts | 268° |
| 2026-04-22 19:31 | -16.28382 | -44.75628 | 33963 ft | 455 kts | 268° |
| 2026-04-22 19:32 | -16.28210 | -44.82207 | 33959 ft | 455 kts | 268° |
| 2026-04-22 19:32 | -16.28030 | -44.88789 | 33957 ft | 455 kts | 268° |
| 2026-04-22 19:33 | -16.27850 | -44.95337 | 33957 ft | 455 kts | 268° |
| 2026-04-22 19:33 | -16.27672 | -45.01930 | 33958 ft | 455 kts | 268° |
| 2026-04-22 19:34 | -16.27487 | -45.08516 | 33959 ft | 455 kts | 268° |
| 2026-04-22 19:34 | -16.27299 | -45.15102 | 33956 ft | 455 kts | 268° |
| 2026-04-22 19:35 | -16.27114 | -45.21695 | 33956 ft | 455 kts | 268° |
| 2026-04-22 19:35 | -16.26963 | -45.27171 | 33952 ft | 455 kts | 268° |
| 2026-04-22 19:36 | -16.26740 | -45.34839 | 33953 ft | 455 kts | 268° |
| 2026-04-22 19:36 | -16.26546 | -45.41426 | 33953 ft | 455 kts | 268° |
| 2026-04-22 19:37 | -16.26353 | -45.48014 | 33958 ft | 455 kts | 268° |
| 2026-04-22 19:37 | -16.26160 | -45.54602 | 33960 ft | 455 kts | 268° |
| 2026-04-22 19:38 | -16.25951 | -45.61197 | 33952 ft | 455 kts | 269° |
| 2026-04-22 19:38 | -16.25747 | -45.67739 | 33955 ft | 455 kts | 269° |
| 2026-04-22 19:39 | -16.25548 | -45.74330 | 33959 ft | 455 kts | 268° |
| 2026-04-22 19:39 | -16.25348 | -45.80921 | 33960 ft | 455 kts | 269° |
| 2026-04-22 19:40 | -16.25143 | -45.87495 | 33962 ft | 455 kts | 269° |
| 2026-04-22 19:40 | -16.24931 | -45.94078 | 33970 ft | 454 kts | 269° |
| 2026-04-22 19:41 | -16.24725 | -46.00652 | 33965 ft | 454 kts | 269° |
| 2026-04-22 19:41 | -16.24515 | -46.07178 | 33972 ft | 454 kts | 269° |
| 2026-04-22 19:42 | -16.24302 | -46.13745 | 33978 ft | 454 kts | 269° |
| 2026-04-22 19:42 | -16.24083 | -46.20309 | 33982 ft | 454 kts | 269° |
| 2026-04-22 19:43 | -16.23757 | -46.30156 | 33979 ft | 453 kts | 269° |
| 2026-04-22 19:43 | -16.23536 | -46.36721 | 33981 ft | 453 kts | 269° |
| 2026-04-22 19:44 | -16.23318 | -46.43277 | 33977 ft | 453 kts | 269° |
| 2026-04-22 19:44 | -16.23096 | -46.49800 | 33975 ft | 453 kts | 269° |
| 2026-04-22 19:45 | -16.22867 | -46.56352 | 33972 ft | 453 kts | 269° |
| 2026-04-22 19:45 | -16.22637 | -46.62918 | 33973 ft | 453 kts | 269° |
| 2026-04-22 19:46 | -16.22406 | -46.69433 | 33977 ft | 453 kts | 269° |
| 2026-04-22 19:46 | -16.22175 | -46.75989 | 33755 ft | 453 kts | 269° |
| 2026-04-22 19:47 | -16.22194 | -46.79243 | 33500 ft | 446 kts | 261° |
| 2026-04-22 19:47 | -16.22702 | -46.82397 | 33025 ft | 438 kts | 251° |
| 2026-04-22 19:47 | -16.23319 | -46.84392 | 32672 ft | 433 kts | 245° |
| 2026-04-22 19:47 | -16.24836 | -46.88251 | 31981 ft | 430 kts | 244° |
| 2026-04-22 19:48 | -16.25960 | -46.91124 | 31476 ft | 427 kts | 244° |
| 2026-04-22 19:48 | -16.27059 | -46.93954 | 30981 ft | 426 kts | 245° |
| 2026-04-22 19:48 | -16.28162 | -46.96805 | 30497 ft | 424 kts | 245° |
| 2026-04-22 19:48 | -16.29260 | -46.99642 | 30000 ft | 422 kts | 245° |
| 2026-04-22 19:49 | -16.30356 | -47.02466 | 29470 ft | 419 kts | 245° |
| 2026-04-22 19:49 | -16.31442 | -47.05268 | 28979 ft | 416 kts | 245° |
| 2026-04-22 19:49 | -16.32520 | -47.08051 | 28496 ft | 413 kts | 245° |
| 2026-04-22 19:49 | -16.33591 | -47.10813 | 28033 ft | 410 kts | 246° |
| 2026-04-22 19:50 | -16.34657 | -47.13566 | 27536 ft | 408 kts | 246° |
| 2026-04-22 19:50 | -16.35714 | -47.16300 | 27064 ft | 406 kts | 246° |
| 2026-04-22 19:50 | -16.36642 | -47.19036 | 26576 ft | 406 kts | 256° |
| 2026-04-22 19:50 | -16.36863 | -47.21965 | 26088 ft | 406 kts | 274° |
| 2026-04-22 19:51 | -16.36238 | -47.24816 | 25576 ft | 406 kts | 292° |
| 2026-04-22 19:51 | -16.34814 | -47.27337 | 25076 ft | 404 kts | 310° |
| 2026-04-22 19:51 | -16.32774 | -47.29342 | 24556 ft | 403 kts | 322° |
| 2026-04-22 19:51 | -16.30593 | -47.31174 | 24038 ft | 403 kts | 322° |
| 2026-04-22 19:52 | -16.28399 | -47.33001 | 23498 ft | 403 kts | 322° |
| 2026-04-22 19:52 | -16.26213 | -47.34818 | 23011 ft | 399 kts | 322° |
| 2026-04-22 19:52 | -16.24040 | -47.36625 | 22438 ft | 399 kts | 322° |
| 2026-04-22 19:52 | -16.21890 | -47.38416 | 21963 ft | 395 kts | 322° |
| 2026-04-22 19:53 | -16.19747 | -47.40203 | 21516 ft | 393 kts | 322° |
| 2026-04-22 19:53 | -16.17612 | -47.41987 | 21007 ft | 392 kts | 322° |
| 2026-04-22 19:53 | -16.16209 | -47.43161 | 20801 ft | 387 kts | 322° |
| 2026-04-22 19:53 | -16.13409 | -47.45502 | 20154 ft | 386 kts | 321° |
| 2026-04-22 19:54 | -16.11324 | -47.47242 | 19726 ft | 383 kts | 321° |
| 2026-04-22 19:54 | -16.09947 | -47.48388 | 19423 ft | 382 kts | 321° |
| 2026-04-22 19:54 | -16.07879 | -47.50108 | 18863 ft | 378 kts | 321° |
| 2026-04-22 19:54 | -16.05840 | -47.51809 | 18150 ft | 373 kts | 321° |
| 2026-04-22 19:55 | -16.03215 | -47.54003 | 17528 ft | 358 kts | 321° |
| 2026-04-22 19:55 | -16.01906 | -47.55094 | 17240 ft | 358 kts | 321° |
| 2026-04-22 19:55 | -15.99960 | -47.56713 | 16820 ft | 357 kts | 321° |
| 2026-04-22 19:55 | -15.98075 | -47.58389 | 16395 ft | 355 kts | 312° |
| 2026-04-22 19:56 | -15.96650 | -47.60464 | 15974 ft | 353 kts | 296° |
| 2026-04-22 19:56 | -15.95848 | -47.62853 | 15570 ft | 349 kts | 279° |
| 2026-04-22 19:56 | -15.95704 | -47.65318 | 15192 ft | 346 kts | 264° |
| 2026-04-22 19:56 | -15.95870 | -47.67804 | 14799 ft | 344 kts | 264° |
| 2026-04-22 19:57 | -15.96034 | -47.70310 | 14403 ft | 343 kts | 265° |
| 2026-04-22 19:57 | -15.96189 | -47.72752 | 14014 ft | 343 kts | 265° |
| 2026-04-22 19:57 | -15.96344 | -47.75221 | 13590 ft | 342 kts | 265° |
| 2026-04-22 19:57 | -15.96500 | -47.77682 | 13178 ft | 340 kts | 265° |
| 2026-04-22 19:58 | -15.96656 | -47.80125 | 12783 ft | 338 kts | 264° |
| 2026-04-22 19:58 | -15.96809 | -47.82553 | 12475 ft | 336 kts | 265° |
| 2026-04-22 19:58 | -15.96960 | -47.84972 | 12079 ft | 334 kts | 265° |
| 2026-04-22 19:58 | -15.97111 | -47.87376 | 11669 ft | 332 kts | 265° |
| 2026-04-22 19:59 | -15.97261 | -47.89760 | 11275 ft | 330 kts | 265° |
| 2026-04-22 20:00 | -15.98091 | -48.02764 | 10035 ft | 273 kts | 265° |
| 2026-04-22 20:00 | -15.98216 | -48.04720 | 9462 ft | 271 kts | 265° |
| 2026-04-22 20:01 | -15.98339 | -48.06674 | 8891 ft | 270 kts | 265° |
| 2026-04-22 20:01 | -15.98462 | -48.08618 | 8454 ft | 269 kts | 265° |
| 2026-04-22 20:01 | -15.98586 | -48.10539 | 8006 ft | 265 kts | 265° |
| 2026-04-22 20:01 | -15.98708 | -48.12445 | 7606 ft | 263 kts | 265° |
| 2026-04-22 20:02 | -15.98809 | -48.14335 | 7210 ft | 261 kts | 271° |
| 2026-04-22 20:02 | -15.98324 | -48.16116 | 6806 ft | 258 kts | 305° |
| 2026-04-22 20:02 | -15.97026 | -48.17355 | 6392 ft | 255 kts | 337° |
| 2026-04-22 20:02 | -15.95306 | -48.17736 | 5893 ft | 255 kts | 5° |
| 2026-04-22 20:03 | -15.93603 | -48.17329 | 5541 ft | 248 kts | 28° |
| 2026-04-22 20:03 | -15.92250 | -48.16345 | 5494 ft | 229 kts | 49° |
| 2026-04-22 20:03 | -15.91346 | -48.15032 | 5509 ft | 221 kts | 61° |
| 2026-04-22 20:03 | -15.90582 | -48.13701 | 5510 ft | 208 kts | 61° |
| 2026-04-22 20:04 | -15.89853 | -48.12438 | 5515 ft | 202 kts | 62° |
| 2026-04-22 20:04 | -15.89262 | -48.11171 | 5537 ft | 191 kts | 79° |
| 2026-04-22 20:04 | -15.89089 | -48.09823 | 5535 ft | 185 kts | 86° |
| 2026-04-22 20:04 | -15.88998 | -48.08566 | 5514 ft | 164 kts | 86° |
| 2026-04-22 20:05 | -15.88923 | -48.07422 | 5532 ft | 154 kts | 88° |
| 2026-04-22 20:05 | -15.88853 | -48.06320 | 5535 ft | 151 kts | 87° |
| 2026-04-22 20:05 | -15.88784 | -48.05241 | 5498 ft | 151 kts | 87° |
| 2026-04-22 20:05 | -15.88715 | -48.04157 | 5369 ft | 150 kts | 86° |
| 2026-04-22 20:06 | -15.88646 | -48.03076 | 5197 ft | 150 kts | 87° |
| 2026-04-22 20:06 | -15.88578 | -48.02002 | 5021 ft | 148 kts | 86° |
| 2026-04-22 20:06 | -15.88510 | -48.00933 | 4833 ft | 149 kts | 86° |
| 2026-04-22 20:06 | -15.88445 | -47.99856 | 4636 ft | 150 kts | 85° |
| 2026-04-22 20:07 | -15.88377 | -47.98785 | 4445 ft | 148 kts | 87° |
| 2026-04-22 20:07 | -15.88304 | -47.97719 | 4245 ft | 148 kts | 85° |
| 2026-04-22 20:07 | -15.88233 | -47.96659 | 4068 ft | 146 kts | 87° |
| 2026-04-22 20:07 | -15.88161 | -47.95598 | 3850 ft | 147 kts | 88° |
| 2026-04-22 20:08 | -15.88101 | -47.94540 | 3654 ft | 147 kts | 88° |
| 2026-04-22 20:08 | -15.88030 | -47.93489 | 3504 ft | 139 kts | 90° |
| 2026-04-22 20:08 | -15.87985 | -47.92650 | 3478 ft | 92 kts | 85° |
| 2026-04-22 20:08 | -15.87949 | -47.92156 | 3474 ft | 46 kts | 87° |
| 2026-04-22 20:09 | -15.87924 | -47.91923 | 3469 ft | 29 kts | 74° |
| 2026-04-22 20:09 | -15.87829 | -47.91732 | 3464 ft | 31 kts | 56° |
| 2026-04-22 20:09 | -15.87776 | -47.91649 | 3461 ft | 0 kts | 55° |
| 2026-04-22 20:09 | -15.87775 | -47.91648 | 3461 ft | 2 kts | 55° |
| 2026-04-22 20:10 | -15.87746 | -47.91604 | 3461 ft | 12 kts | 56° |
| 2026-04-22 20:10 | -15.87678 | -47.91553 | 3462 ft | 12 kts | 2° |
| 2026-04-22 20:10 | -15.87606 | -47.91556 | 3464 ft | 8 kts | 356° |
| 2026-04-22 20:10 | -15.87540 | -47.91560 | 3468 ft | 12 kts | 356° |
| 2026-04-22 20:11 | -15.87472 | -47.91565 | 3470 ft | 8 kts | 355° |
| 2026-04-22 20:11 | -15.87432 | -47.91568 | 3471 ft | 4 kts | 356° |
| 2026-04-22 20:11 | -15.87374 | -47.91572 | 3471 ft | 13 kts | 356° |
| 2026-04-22 20:11 | -15.87280 | -47.91578 | 3472 ft | 13 kts | 356° |
| 2026-04-22 20:12 | -15.87198 | -47.91583 | 3472 ft | 11 kts | 356° |
| 2026-04-22 20:12 | -15.87130 | -47.91587 | 3472 ft | 9 kts | 357° |
| 2026-04-22 20:12 | -15.87070 | -47.91594 | 3470 ft | 8 kts | 346° |
| 2026-04-22 20:12 | -15.87054 | -47.91636 | 3472 ft | 6 kts | 267° |
| 2026-04-22 20:13 | -15.87056 | -47.91674 | 3471 ft | 5 kts | 265° |
| 2026-04-22 20:13 | -15.87060 | -47.91711 | 3472 ft | 9 kts | 265° |
| 2026-04-22 20:13 | -15.87064 | -47.91782 | 3472 ft | 9 kts | 266° |
| 2026-04-22 20:13 | -15.87075 | -47.91820 | 3471 ft | 3 kts | 199° |
| 2026-04-22 20:14 | -15.87093 | -47.91819 | 3472 ft | 2 kts | 176° |
| 2026-04-22 20:14 | -15.87104 | -47.91818 | 3472 ft | 2 kts | 176° |
| 2026-04-22 20:14 | -15.87116 | -47.91817 | 3472 ft | 2 kts | 176° |
| 2026-04-22 20:14 | -15.87125 | -47.91817 | 3472 ft | 0 kts | 176° |